createdAt,value
2018-12-30T00:02:32.181Z,1.90
2018-12-30T00:07:55.518Z,1.47
2018-12-30T00:13:18.306Z,1.30
2018-12-30T00:18:41.841Z,1.57
2018-12-30T00:24:07.655Z,1.20
2018-12-30T00:29:30.923Z,1.23
2018-12-30T00:34:54.165Z,1.70
2018-12-30T00:40:17.736Z,1.57
2018-12-30T00:45:40.397Z,1.77
2018-12-30T00:51:04.129Z,1.30
2018-12-30T00:56:26.926Z,1.40
2018-12-30T01:01:50.254Z,1.57
2018-12-30T01:07:13.305Z,1.47
2018-12-30T01:12:36.641Z,1.23
2018-12-30T01:17:59.622Z,1.20
2018-12-30T01:23:22.369Z,1.43
2018-12-30T01:28:45.375Z,1.30
2018-12-30T01:34:08.456Z,1.30
2018-12-30T01:39:31.655Z,1.17
2018-12-30T01:44:54.834Z,1.50
2018-12-30T01:50:17.961Z,1.17
2018-12-30T01:55:40.932Z,1.30
2018-12-30T02:01:04.630Z,1.30
2018-12-30T02:06:27.921Z,1.10
2018-12-30T02:11:51.185Z,1.13
2018-12-30T02:17:14.259Z,1.47
2018-12-30T02:22:37.875Z,1.50
2018-12-30T02:28:00.720Z,1.10
2018-12-30T02:33:23.447Z,1.43
2018-12-30T02:38:46.877Z,1.10
2018-12-30T02:44:09.528Z,1.43
2018-12-30T02:49:32.353Z,1.40
2018-12-30T02:54:55.726Z,1.00
2018-12-30T03:00:18.709Z,1.10
2018-12-30T03:05:42.427Z,1.17
2018-12-30T03:11:05.510Z,1.33
2018-12-30T03:16:28.684Z,1.20
2018-12-30T03:21:58.986Z,1.30
2018-12-30T03:27:16.138Z,1.70
2018-12-30T03:32:38.863Z,1.60
2018-12-30T03:38:02.162Z,1.47
2018-12-30T03:43:25.482Z,1.90
2018-12-30T03:48:48.596Z,1.93
2018-12-30T03:54:11.257Z,1.90
2018-12-30T03:59:34.327Z,1.97
2018-12-30T04:04:57.859Z,1.63
2018-12-30T04:10:20.353Z,1.50
2018-12-30T04:15:43.139Z,1.40
2018-12-30T04:21:06.240Z,1.70
2018-12-30T04:26:28.978Z,1.40
2018-12-30T04:31:52.322Z,1.37
2018-12-30T04:37:15.990Z,1.20
2018-12-30T04:42:38.689Z,1.57
2018-12-30T04:48:02.092Z,1.20
2018-12-30T04:53:25.762Z,1.40
2018-12-30T04:58:48.457Z,1.10
2018-12-30T05:04:11.714Z,1.30
2018-12-30T05:09:34.550Z,1.30
2018-12-30T05:14:57.994Z,1.20
2018-12-30T05:20:21.018Z,1.40
2018-12-30T05:25:43.998Z,1.03
2018-12-30T05:31:06.996Z,1.37
2018-12-30T05:36:29.663Z,0.97
2018-12-30T05:41:52.862Z,1.07
2018-12-30T05:47:19.217Z,1.20
2018-12-30T05:52:42.350Z,0.80
2018-12-30T05:58:11.372Z,0.70
2018-12-30T06:03:34.354Z,1.00
2018-12-30T06:08:57.077Z,0.77
2018-12-30T06:14:20.077Z,1.10
2018-12-30T06:19:43.363Z,1.17
2018-12-30T06:25:06.481Z,1.13
2018-12-30T06:30:29.634Z,1.27
2018-12-30T06:35:52.518Z,1.00
2018-12-30T06:41:16.076Z,0.80
2018-12-30T06:46:39.370Z,0.87
2018-12-30T06:52:02.113Z,1.03
2018-12-30T06:57:25.208Z,1.03
2018-12-30T07:02:48.434Z,1.13
2018-12-30T07:08:12.169Z,1.27
2018-12-30T07:13:35.443Z,1.20
2018-12-30T07:18:58.209Z,1.20
2018-12-30T07:24:21.078Z,0.90
2018-12-30T07:29:44.473Z,1.27
2018-12-30T07:35:07.805Z,0.87
2018-12-30T07:40:31.454Z,0.80
2018-12-30T07:45:54.441Z,1.00
2018-12-30T07:51:17.786Z,1.10
2018-12-30T07:56:40.695Z,1.00
2018-12-30T08:02:03.642Z,0.80
2018-12-30T08:07:26.824Z,1.57
2018-12-30T08:12:50.221Z,1.07
2018-12-30T08:18:13.803Z,1.40
2018-12-30T08:23:36.877Z,0.93
2018-12-30T08:29:00.153Z,1.07
2018-12-30T08:34:23.085Z,0.93
2018-12-30T08:39:46.559Z,1.10
2018-12-30T08:45:10.486Z,1.23
2018-12-30T08:50:33.741Z,1.40
2018-12-30T08:55:56.873Z,1.33
2018-12-30T09:01:27.993Z,1.50
2018-12-30T09:06:44.545Z,1.27
2018-12-30T09:12:07.334Z,1.60
2018-12-30T09:17:30.834Z,1.40
2018-12-30T09:22:54.369Z,1.30
2018-12-30T09:28:17.390Z,2.00
2018-12-30T09:33:40.726Z,2.00
2018-12-30T09:39:04.586Z,2.07
2018-12-30T09:44:27.282Z,2.20
2018-12-30T09:49:50.654Z,1.77
2018-12-30T09:55:13.741Z,2.07
2018-12-30T10:00:37.339Z,1.97
2018-12-30T10:06:00.282Z,2.23
2018-12-30T10:11:23.084Z,2.20
2018-12-30T10:16:46.450Z,2.07
2018-12-30T10:22:09.472Z,2.47
2018-12-30T10:27:32.324Z,2.50
2018-12-30T10:32:55.243Z,2.77
2018-12-30T10:38:18.067Z,1.90
2018-12-30T10:43:41.434Z,2.13
2018-12-30T10:49:04.434Z,2.60
2018-12-30T10:54:27.504Z,2.33
2018-12-30T10:59:50.603Z,2.53
2018-12-30T11:05:13.638Z,2.60
2018-12-30T11:10:36.846Z,2.53
2018-12-30T11:15:59.705Z,2.60
2018-12-30T11:21:23.202Z,2.60
2018-12-30T11:26:46.337Z,2.70
2018-12-30T11:32:09.906Z,2.53
2018-12-30T11:37:33.195Z,2.33
2018-12-30T11:42:56.539Z,2.77
2018-12-30T11:48:19.200Z,2.43
2018-12-30T11:53:42.536Z,2.30
2018-12-30T11:59:06.010Z,2.77
2018-12-30T12:04:28.866Z,2.60
2018-12-30T12:09:51.621Z,2.57
2018-12-30T12:15:14.502Z,3.00
2018-12-30T12:20:37.799Z,3.00
2018-12-30T12:26:00.969Z,2.80
2018-12-30T12:31:23.398Z,4.03
2018-12-30T12:36:46.653Z,3.53
2018-12-30T12:42:09.711Z,4.00
2018-12-30T12:47:32.462Z,4.97
2018-12-30T12:52:55.383Z,4.17
2018-12-30T12:58:18.368Z,4.90
2018-12-30T13:03:41.233Z,4.47
2018-12-30T13:09:06.082Z,4.43
2018-12-30T13:14:29.262Z,4.17
2018-12-30T13:19:52.588Z,4.43
2018-12-30T13:25:15.601Z,4.77
2018-12-30T13:30:38.677Z,3.97
2018-12-30T13:36:02.538Z,4.13
2018-12-30T13:41:25.313Z,4.33
2018-12-30T13:46:48.947Z,3.97
2018-12-30T13:52:12.047Z,4.27
2018-12-30T13:57:34.920Z,4.13
2018-12-30T14:02:58.259Z,4.63
2018-12-30T14:08:21.220Z,5.07
2018-12-30T14:13:43.940Z,4.23
2018-12-30T14:19:07.366Z,4.13
2018-12-30T14:24:30.212Z,4.27
2018-12-30T14:29:53.587Z,3.83
2018-12-30T14:35:16.376Z,3.50
2018-12-30T14:40:39.823Z,3.73
2018-12-30T14:46:02.652Z,3.30
2018-12-30T14:51:25.766Z,3.20
2018-12-30T14:56:49.380Z,3.50
2018-12-30T15:02:12.134Z,2.53
2018-12-30T15:07:35.262Z,2.20
2018-12-30T15:12:58.615Z,2.17
2018-12-30T15:18:21.933Z,3.13
2018-12-30T15:23:44.956Z,5.63
2018-12-30T15:29:08.374Z,4.30
2018-12-30T15:34:31.352Z,3.07
2018-12-30T15:39:54.130Z,3.50
2018-12-30T15:45:18.106Z,3.47
2018-12-30T15:50:41.128Z,3.40
2018-12-30T15:56:05.292Z,4.20
2018-12-30T16:01:28.482Z,3.87
2018-12-30T16:06:51.633Z,3.20
2018-12-30T16:12:14.949Z,3.50
2018-12-30T16:17:37.470Z,4.07
2018-12-30T16:23:00.374Z,4.30
2018-12-30T16:28:24.285Z,4.63
2018-12-30T16:33:47.482Z,4.00
2018-12-30T16:39:10.382Z,5.07
2018-12-30T16:44:34.486Z,5.20
2018-12-30T16:49:56.937Z,4.77
2018-12-30T16:55:20.261Z,6.13
2018-12-30T17:00:43.497Z,6.00
2018-12-30T17:06:07.065Z,7.00
2018-12-30T17:11:30.064Z,6.53
2018-12-30T17:16:53.387Z,6.47
2018-12-30T17:22:16.302Z,6.60
2018-12-30T17:27:40.405Z,6.77
2018-12-30T17:33:04.002Z,6.90
2018-12-30T17:38:27.745Z,8.03
2018-12-30T17:43:50.461Z,6.90
2018-12-30T17:49:13.494Z,7.40
2018-12-30T17:54:36.710Z,7.87
2018-12-30T18:00:02.114Z,6.97
2018-12-30T18:05:25.920Z,6.70
2018-12-30T18:10:50.306Z,6.53
2018-12-30T18:16:13.440Z,7.13
2018-12-30T18:21:37.082Z,6.50
2018-12-30T18:27:00.559Z,6.27
2018-12-30T18:32:24.453Z,5.73
2018-12-30T18:37:50.728Z,5.53
2018-12-30T18:43:16.085Z,4.70
2018-12-30T18:48:39.319Z,5.00
2018-12-30T18:54:03.395Z,6.50
2018-12-30T18:59:26.658Z,5.93
2018-12-30T19:04:49.541Z,5.73
2018-12-30T19:10:15.679Z,6.30
2018-12-30T19:15:41.285Z,5.63
2018-12-30T19:21:08.282Z,6.03
2018-12-30T19:26:33.524Z,5.90
2018-12-30T19:31:58.794Z,5.77
2018-12-30T19:37:22.303Z,5.10
2018-12-30T19:42:45.419Z,5.23
2018-12-30T19:48:10.298Z,5.33
2018-12-30T19:53:34.017Z,5.57
2018-12-30T19:58:57.476Z,4.50
2018-12-30T20:04:21.373Z,4.80
2018-12-30T20:09:45.171Z,5.27
2018-12-30T20:15:09.944Z,5.03
2018-12-30T20:20:32.920Z,4.77
2018-12-30T20:25:56.312Z,5.47
2018-12-30T20:31:19.617Z,5.50
2018-12-30T20:36:53.930Z,4.60
2018-12-30T20:42:17.535Z,5.30
2018-12-30T20:47:41.014Z,5.47
2018-12-30T20:53:05.794Z,4.43
2018-12-30T20:58:29.951Z,4.13
2018-12-30T21:03:55.209Z,5.50
2018-12-30T21:09:18.457Z,5.37
2018-12-30T21:14:42.198Z,5.00
2018-12-30T21:20:06.658Z,5.47
2018-12-30T21:25:30.255Z,7.00
2018-12-30T21:30:53.679Z,6.17
2018-12-30T21:36:17.771Z,5.37
2018-12-30T21:41:45.138Z,5.43
2018-12-30T21:47:09.270Z,5.47
2018-12-30T21:52:32.982Z,5.20
2018-12-30T21:57:56.961Z,5.40
2018-12-30T22:03:19.940Z,5.93
2018-12-30T22:08:45.847Z,5.83
2018-12-30T22:14:08.663Z,6.57
2018-12-30T22:19:34.553Z,6.33
2018-12-30T22:24:58.050Z,6.17
2018-12-30T22:30:21.557Z,6.33
2018-12-30T22:35:44.755Z,5.63
2018-12-30T22:41:07.642Z,5.47
2018-12-30T22:46:31.601Z,5.33
2018-12-30T22:51:54.706Z,5.03
2018-12-30T22:57:17.922Z,5.17
2018-12-30T23:02:41.174Z,5.13
2018-12-30T23:08:04.530Z,5.40
2018-12-30T23:13:27.804Z,5.50
2018-12-30T23:18:51.175Z,5.27
2018-12-30T23:24:14.336Z,5.27
2018-12-30T23:29:36.803Z,5.37
2018-12-30T23:34:59.906Z,4.97
2018-12-30T23:40:22.977Z,4.87
2018-12-30T23:45:45.810Z,4.20
2018-12-30T23:51:09.216Z,3.57
2018-12-30T23:56:32.054Z,3.83
